sensor_id;sensor_type;location;lat;lon;timestamp;pressure;altitude;pressure_sealevel;temperature;humidity
79612;BME280;69094;48.154;11.536;2023-09-12T00:02:08;95269.84;;;20.37;64.39
79612;BME280;69094;48.154;11.536;2023-09-12T00:04:35;95259.19;;;20.43;64.20
79612;BME280;69094;48.154;11.536;2023-09-12T00:07:00;95262.72;;;20.43;64.33
79612;BME280;69094;48.154;11.536;2023-09-12T00:09:25;95257.97;;;20.44;63.75
79612;BME280;69094;48.154;11.536;2023-09-12T00:11:56;95252.06;;;20.38;63.96
79612;BME280;69094;48.154;11.536;2023-09-12T00:14:22;95259.19;;;20.32;64.00
79612;BME280;69094;48.154;11.536;2023-09-12T00:16:47;95250.88;;;20.21;64.26
79612;BME280;69094;48.154;11.536;2023-09-12T00:19:12;95252.88;;;20.28;64.18
79612;BME280;69094;48.154;11.536;2023-09-12T00:21:39;95245.78;;;20.20;64.59
79612;BME280;69094;48.154;11.536;2023-09-12T00:24:05;95250.88;;;20.14;64.54
79612;BME280;69094;48.154;11.536;2023-09-12T00:26:30;95244.56;;;20.14;64.77
79612;BME280;69094;48.154;11.536;2023-09-12T00:28:56;95246.94;;;20.15;64.97
79612;BME280;69094;48.154;11.536;2023-09-12T00:31:22;95239.03;;;20.07;65.03
79612;BME280;69094;48.154;11.536;2023-09-12T00:33:47;95246.16;;;20.08;65.02
79612;BME280;69094;48.154;11.536;2023-09-12T00:36:12;95242.59;;;20.04;65.04
79612;BME280;69094;48.154;11.536;2023-09-12T00:38:39;95242.22;;;20.05;64.87
79612;BME280;69094;48.154;11.536;2023-09-12T00:41:04;95233.13;;;20.05;64.75
79612;BME280;69094;48.154;11.536;2023-09-12T00:43:29;95238.66;;;19.97;64.84
79612;BME280;69094;48.154;11.536;2023-09-12T00:45:55;95234.69;;;19.95;65.10
79612;BME280;69094;48.154;11.536;2023-09-12T00:48:20;95232.31;;;19.90;65.10
79612;BME280;69094;48.154;11.536;2023-09-12T00:50:47;95236.28;;;19.92;65.44
79612;BME280;69094;48.154;11.536;2023-09-12T00:53:14;95233.13;;;19.87;65.34
79612;BME280;69094;48.154;11.536;2023-09-12T00:55:45;95229.56;;;19.90;66.00
79612;BME280;69094;48.154;11.536;2023-09-12T00:58:12;95227.63;;;19.90;65.79
79612;BME280;69094;48.154;11.536;2023-09-12T01:00:40;95231.16;;;19.80;65.46
79612;BME280;69094;48.154;11.536;2023-09-12T01:03:06;95225.22;;;19.78;65.24
79612;BME280;69094;48.154;11.536;2023-09-12T01:05:32;95229.97;;;19.81;65.29
79612;BME280;69094;48.154;11.536;2023-09-12T01:07:59;95222.88;;;19.84;65.21
79612;BME280;69094;48.154;11.536;2023-09-12T01:10:25;95228.78;;;19.89;65.14
79612;BME280;69094;48.154;11.536;2023-09-12T01:12:51;95228.38;;;19.87;65.97
79612;BME280;69094;48.154;11.536;2023-09-12T01:15:17;95228.00;;;19.89;64.55
79612;BME280;69094;48.154;11.536;2023-09-12T01:17:43;95229.19;;;19.88;64.50
79612;BME280;69094;48.154;11.536;2023-09-12T01:20:16;95225.22;;;19.74;64.77
79612;BME280;69094;48.154;11.536;2023-09-12T01:28:12;95225.97;;;19.64;65.11
79612;BME280;69094;48.154;11.536;2023-09-12T01:30:42;95228.31;;;19.62;65.22
79612;BME280;69094;48.154;11.536;2023-09-12T01:33:07;95231.47;;;19.61;66.27
79612;BME280;69094;48.154;11.536;2023-09-12T01:35:33;95220.44;;;19.64;65.96
79612;BME280;69094;48.154;11.536;2023-09-12T01:37:58;95219.66;;;19.64;66.13
79612;BME280;69094;48.154;11.536;2023-09-12T01:40:34;95218.84;;;19.59;66.44
79612;BME280;69094;48.154;11.536;2023-09-12T01:43:00;95216.94;;;19.74;66.06
79612;BME280;69094;48.154;11.536;2023-09-12T01:45:27;95219.63;;;19.49;66.98
79612;BME280;69094;48.154;11.536;2023-09-12T01:47:53;95228.31;;;19.51;67.57
79612;BME280;69094;48.154;11.536;2023-09-12T01:50:20;95232.25;;;19.65;67.14
79612;BME280;69094;48.154;11.536;2023-09-12T01:52:46;95233.09;;;19.72;66.95
79612;BME280;69094;48.154;11.536;2023-09-12T01:55:12;95232.25;;;19.57;67.63
79612;BME280;69094;48.154;11.536;2023-09-12T01:57:37;95239.34;;;19.62;67.75
79612;BME280;69094;48.154;11.536;2023-09-12T02:00:04;95241.28;;;19.47;68.01
79612;BME280;69094;48.154;11.536;2023-09-12T02:02:29;95242.81;;;19.23;68.99
79612;BME280;69094;48.154;11.536;2023-09-12T02:05:11;95241.56;;;19.10;69.32
79612;BME280;69094;48.154;11.536;2023-09-12T02:07:38;95246.38;;;19.34;69.00
79612;BME280;69094;48.154;11.536;2023-09-12T02:10:04;95246.38;;;19.31;68.61
79612;BME280;69094;48.154;11.536;2023-09-12T02:12:31;95246.34;;;19.24;69.23
79612;BME280;69094;48.154;11.536;2023-09-12T02:14:57;95250.75;;;19.35;69.29
79612;BME280;69094;48.154;11.536;2023-09-12T02:17:22;95248.75;;;19.36;68.67
79612;BME280;69094;48.154;11.536;2023-09-12T02:19:48;95244.06;;;19.44;66.80
79612;BME280;69094;48.154;11.536;2023-09-12T02:22:14;95246.38;;;19.34;67.66
79612;BME280;69094;48.154;11.536;2023-09-12T02:24:39;95250.34;;;19.37;68.61
79612;BME280;69094;48.154;11.536;2023-09-12T02:27:04;95250.34;;;19.33;68.00
79612;BME280;69094;48.154;11.536;2023-09-12T02:29:30;95247.09;;;19.13;68.57
79612;BME280;69094;48.154;11.536;2023-09-12T02:31:57;95252.59;;;19.10;69.10
79612;BME280;69094;48.154;11.536;2023-09-12T02:34:23;95249.88;;;19.17;69.14
79612;BME280;69094;48.154;11.536;2023-09-12T02:36:48;95258.19;;;19.21;69.42
79612;BME280;69094;48.154;11.536;2023-09-12T02:39:13;95255.78;;;19.15;69.36
79612;BME280;69094;48.154;11.536;2023-09-12T02:41:39;95249.41;;;19.01;69.78
79612;BME280;69094;48.154;11.536;2023-09-12T02:44:05;95256.50;;;18.98;69.90
79612;BME280;69094;48.154;11.536;2023-09-12T02:46:30;95247.84;;;19.03;69.48
79612;BME280;69094;48.154;11.536;2023-09-12T02:48:55;95250.66;;;19.18;69.46
79612;BME280;69094;48.154;11.536;2023-09-12T02:51:21;95254.69;;;19.42;68.42
79612;BME280;69094;48.154;11.536;2023-09-12T02:53:46;95253.88;;;19.37;68.88
79612;BME280;69094;48.154;11.536;2023-09-12T02:56:12;95249.91;;;19.24;68.34
79612;BME280;69094;48.154;11.536;2023-09-12T02:58:37;95249.50;;;19.19;67.54
79612;BME280;69094;48.154;11.536;2023-09-12T03:01:02;95251.41;;;19.04;68.57
79612;BME280;69094;48.154;11.536;2023-09-12T03:03:30;95246.63;;;18.93;69.20
79612;BME280;69094;48.154;11.536;2023-09-12T03:05:59;95245.81;;;18.86;68.76
79612;BME280;69094;48.154;11.536;2023-09-12T03:08:25;95252.78;;;18.72;69.33
79612;BME280;69094;48.154;11.536;2023-09-12T03:10:55;95248.81;;;18.70;69.03
79612;BME280;69094;48.154;11.536;2023-09-12T03:13:20;95244.50;;;18.72;68.20
79612;BME280;69094;48.154;11.536;2023-09-12T03:15:45;95243.25;;;18.63;68.61
79612;BME280;69094;48.154;11.536;2023-09-12T03:18:11;95239.69;;;18.55;68.81
79612;BME280;69094;48.154;11.536;2023-09-12T03:20:39;95244.41;;;18.58;68.77
79612;BME280;69094;48.154;11.536;2023-09-12T03:23:04;95237.75;;;18.59;68.62
79612;BME280;69094;48.154;11.536;2023-09-12T03:25:30;95244.41;;;18.51;68.89
79612;BME280;69094;48.154;11.536;2023-09-12T03:27:55;95248.41;;;18.61;68.59
79612;BME280;69094;48.154;11.536;2023-09-12T03:30:20;95244.81;;;18.60;68.66
79612;BME280;69094;48.154;11.536;2023-09-12T03:32:46;95247.53;;;18.53;68.86
79612;BME280;69094;48.154;11.536;2023-09-12T03:35:11;95244.75;;;18.46;69.02
79612;BME280;69094;48.154;11.536;2023-09-12T03:37:37;95251.78;;;18.36;69.66
79612;BME280;69094;48.154;11.536;2023-09-12T03:40:07;95248.63;;;18.38;69.89
79612;BME280;69094;48.154;11.536;2023-09-12T03:42:32;95240.34;;;18.34;70.02
79612;BME280;69094;48.154;11.536;2023-09-12T03:44:57;95242.69;;;18.36;69.26
79612;BME280;69094;48.154;11.536;2023-09-12T03:47:23;95240.34;;;18.38;69.79
79612;BME280;69094;48.154;11.536;2023-09-12T03:49:48;95244.81;;;18.57;69.84
79612;BME280;69094;48.154;11.536;2023-09-12T03:52:14;95246.44;;;18.65;69.02
79612;BME280;69094;48.154;11.536;2023-09-12T03:54:39;95250.34;;;18.60;68.85
79612;BME280;69094;48.154;11.536;2023-09-12T03:57:04;95246.78;;;18.56;69.11
79612;BME280;69094;48.154;11.536;2023-09-12T03:59:30;95246.63;;;18.31;69.61
79612;BME280;69094;48.154;11.536;2023-09-12T04:01:55;95252.97;;;18.39;69.65
79612;BME280;69094;48.154;11.536;2023-09-12T04:04:20;95250.28;;;18.46;69.42
79612;BME280;69094;48.154;11.536;2023-09-12T04:06:46;95251.47;;;18.48;69.05
79612;BME280;69094;48.154;11.536;2023-09-12T04:09:12;95247.03;;;18.37;69.59
79612;BME280;69094;48.154;11.536;2023-09-12T04:11:37;95247.38;;;18.28;70.37
79612;BME280;69094;48.154;11.536;2023-09-12T04:14:02;95249.81;;;18.37;70.76
79612;BME280;69094;48.154;11.536;2023-09-12T04:16:28;95249.09;;;18.47;70.10
79612;BME280;69094;48.154;11.536;2023-09-12T04:18:53;95255.38;;;18.44;70.46
79612;BME280;69094;48.154;11.536;2023-09-12T04:21:19;95257.34;;;18.43;69.24
79612;BME280;69094;48.154;11.536;2023-09-12T04:23:44;95253.69;;;18.32;69.65
79612;BME280;69094;48.154;11.536;2023-09-12T04:26:10;95256.81;;;18.27;69.71
79612;BME280;69094;48.154;11.536;2023-09-12T04:28:35;95255.19;;;18.22;69.98
79612;BME280;69094;48.154;11.536;2023-09-12T04:31:02;95259.03;;;18.11;70.29
79612;BME280;69094;48.154;11.536;2023-09-12T04:33:28;95252.66;;;17.99;70.82
79612;BME280;69094;48.154;11.536;2023-09-12T04:35:53;95254.66;;;18.02;70.79
79612;BME280;69094;48.154;11.536;2023-09-12T04:38:19;95259.72;;;18.00;70.78
79612;BME280;69094;48.154;11.536;2023-09-12T04:40:53;95251.88;;;17.99;71.12
79612;BME280;69094;48.154;11.536;2023-09-12T04:43:19;95258.19;;;18.03;70.70
79612;BME280;69094;48.154;11.536;2023-09-12T04:45:44;95253.47;;;18.03;70.77
79612;BME280;69094;48.154;11.536;2023-09-12T04:48:10;95259.81;;;18.07;70.60
79612;BME280;69094;48.154;11.536;2023-09-12T04:50:43;95249.63;;;18.12;70.43
79612;BME280;69094;48.154;11.536;2023-09-12T04:53:08;95254.22;;;18.00;70.98
79612;BME280;69094;48.154;11.536;2023-09-12T04:55:37;95250.34;;;18.08;71.33
79612;BME280;69094;48.154;11.536;2023-09-12T04:58:04;95257.97;;;18.26;70.52
79612;BME280;69094;48.154;11.536;2023-09-12T05:00:29;95258.44;;;18.35;70.38
79612;BME280;69094;48.154;11.536;2023-09-12T05:02:54;95257.72;;;18.45;69.81
79612;BME280;69094;48.154;11.536;2023-09-12T05:05:20;95256.88;;;18.38;69.61
79612;BME280;69094;48.154;11.536;2023-09-12T05:07:45;95259.22;;;18.36;70.09
79612;BME280;69094;48.154;11.536;2023-09-12T05:10:11;95265.91;;;18.31;69.73
79612;BME280;69094;48.154;11.536;2023-09-12T05:12:36;95262.97;;;18.13;70.34
79612;BME280;69094;48.154;11.536;2023-09-12T05:15:01;95263.31;;;18.04;70.81
79612;BME280;69094;48.154;11.536;2023-09-12T05:17:27;95257.72;;;17.94;71.25
79612;BME280;69094;48.154;11.536;2023-09-12T05:19:53;95262.50;;;18.00;70.89
79612;BME280;69094;48.154;11.536;2023-09-12T05:22:18;95274.81;;;18.14;70.27
79612;BME280;69094;48.154;11.536;2023-09-12T05:24:45;95270.44;;;18.09;70.53
79612;BME280;69094;48.154;11.536;2023-09-12T05:27:11;95273.34;;;18.30;69.49
79612;BME280;69094;48.154;11.536;2023-09-12T05:29:36;95278.00;;;18.19;69.88
79612;BME280;69094;48.154;11.536;2023-09-12T05:32:03;95268.53;;;18.17;69.96
79612;BME280;69094;48.154;11.536;2023-09-12T05:34:31;95271.75;;;18.26;69.66
79612;BME280;69094;48.154;11.536;2023-09-12T05:36:57;95270.63;;;18.34;69.40
79612;BME280;69094;48.154;11.536;2023-09-12T05:39:22;95278.53;;;18.39;69.24
79612;BME280;69094;48.154;11.536;2023-09-12T05:41:48;95274.25;;;18.42;69.17
79612;BME280;69094;48.154;11.536;2023-09-12T05:44:14;95280.94;;;18.44;69.25
79612;BME280;69094;48.154;11.536;2023-09-12T05:46:45;95276.38;;;18.70;68.39
79612;BME280;69094;48.154;11.536;2023-09-12T05:49:11;95280.09;;;18.88;67.50
79612;BME280;69094;48.154;11.536;2023-09-12T05:51:36;95278.63;;;19.16;66.44
79612;BME280;69094;48.154;11.536;2023-09-12T05:54:02;95290.94;;;19.33;65.85
79612;BME280;69094;48.154;11.536;2023-09-12T05:56:28;95286.28;;;19.58;64.90
79612;BME280;69094;48.154;11.536;2023-09-12T05:58:54;95294.25;;;19.82;64.11
79612;BME280;69094;48.154;11.536;2023-09-12T06:01:19;95285.59;;;19.90;63.43
79612;BME280;69094;48.154;11.536;2023-09-12T06:03:44;95288.41;;;20.22;62.69
79612;BME280;69094;48.154;11.536;2023-09-12T06:06:10;95295.09;;;20.36;62.51
79612;BME280;69094;48.154;11.536;2023-09-12T06:08:35;95292.38;;;20.57;61.14
79612;BME280;69094;48.154;11.536;2023-09-12T06:11:01;95296.31;;;20.67;61.03
79612;BME280;69094;48.154;11.536;2023-09-12T06:13:26;95298.25;;;20.59;60.85
79612;BME280;69094;48.154;11.536;2023-09-12T06:15:51;95298.25;;;20.88;60.09
79612;BME280;69094;48.154;11.536;2023-09-12T06:18:17;95298.22;;;20.99;59.65
79612;BME280;69094;48.154;11.536;2023-09-12T06:20:43;95297.38;;;21.16;59.08
79612;BME280;69094;48.154;11.536;2023-09-12T06:23:09;95306.03;;;21.29;58.99
79612;BME280;69094;48.154;11.536;2023-09-12T06:25:35;95300.81;;;21.60;57.78
79612;BME280;69094;48.154;11.536;2023-09-12T06:28:00;95299.91;;;21.73;56.70
79612;BME280;69094;48.154;11.536;2023-09-12T06:30:26;95303.13;;;22.35;55.90
79612;BME280;69094;48.154;11.536;2023-09-12T06:32:51;95300.69;;;22.44;55.20
79612;BME280;69094;48.154;11.536;2023-09-12T06:35:17;95307.09;;;22.34;55.65
79612;BME280;69094;48.154;11.536;2023-09-12T06:37:45;95303.34;;;22.58;54.19
79612;BME280;69094;48.154;11.536;2023-09-12T06:40:12;95302.47;;;22.65;55.04
79612;BME280;69094;48.154;11.536;2023-09-12T06:42:37;95296.22;;;22.57;54.06
79612;BME280;69094;48.154;11.536;2023-09-12T06:45:03;95302.97;;;22.56;54.29
79612;BME280;69094;48.154;11.536;2023-09-12T06:47:29;95305.63;;;22.67;54.50
79612;BME280;69094;48.154;11.536;2023-09-12T06:49:54;95298.63;;;22.97;52.96
79612;BME280;69094;48.154;11.536;2023-09-12T06:52:20;95305.47;;;23.27;52.90
79612;BME280;69094;48.154;11.536;2023-09-12T06:54:46;95306.31;;;23.24;52.66
79612;BME280;69094;48.154;11.536;2023-09-12T06:57:11;95304.09;;;23.42;52.38
79612;BME280;69094;48.154;11.536;2023-09-12T06:59:37;95312.09;;;23.36;52.42
79612;BME280;69094;48.154;11.536;2023-09-12T07:02:03;95300.09;;;23.81;51.10
79612;BME280;69094;48.154;11.536;2023-09-12T07:04:29;95309.22;;;24.08;50.08
79612;BME280;69094;48.154;11.536;2023-09-12T07:06:54;95310.78;;;24.64;49.59
79612;BME280;69094;48.154;11.536;2023-09-12T07:09:20;95310.63;;;24.75;48.93
79612;BME280;69094;48.154;11.536;2023-09-12T07:11:46;95308.31;;;25.13;47.83
79612;BME280;69094;48.154;11.536;2023-09-12T07:14:11;95316.38;;;25.51;47.07
79612;BME280;69094;48.154;11.536;2023-09-12T07:16:37;95325.44;;;25.11;47.62
79612;BME280;69094;48.154;11.536;2023-09-12T07:19:02;95322.72;;;25.31;47.78
79612;BME280;69094;48.154;11.536;2023-09-12T07:21:29;95328.50;;;25.81;46.21
79612;BME280;69094;48.154;11.536;2023-09-12T07:23:55;95328.97;;;25.79;46.08
79612;BME280;69094;48.154;11.536;2023-09-12T07:26:20;95321.59;;;26.25;45.45
79612;BME280;69094;48.154;11.536;2023-09-12T07:28:46;95332.59;;;25.96;45.40
79612;BME280;69094;48.154;11.536;2023-09-12T07:31:11;95336.38;;;26.42;44.42
79612;BME280;69094;48.154;11.536;2023-09-12T07:33:37;95325.78;;;26.70;43.44
79612;BME280;69094;48.154;11.536;2023-09-12T07:36:02;95327.69;;;26.89;43.61
79612;BME280;69094;48.154;11.536;2023-09-12T07:38:28;95327.63;;;26.40;45.01
79612;BME280;69094;48.154;11.536;2023-09-12T07:40:56;95317.81;;;26.84;43.36
79612;BME280;69094;48.154;11.536;2023-09-12T07:43:21;95320.97;;;27.48;41.81
79612;BME280;69094;48.154;11.536;2023-09-12T07:45:46;95328.22;;;27.75;40.96
79612;BME280;69094;48.154;11.536;2023-09-12T07:48:12;95333.34;;;28.44;39.81
79612;BME280;69094;48.154;11.536;2023-09-12T07:50:38;95332.59;;;28.82;38.93
79612;BME280;69094;48.154;11.536;2023-09-12T07:53:06;95336.22;;;29.17;38.00
79612;BME280;69094;48.154;11.536;2023-09-12T07:55:35;95328.91;;;28.72;38.80
79612;BME280;69094;48.154;11.536;2023-09-12T07:58:06;95331.88;;;28.91;39.61
79612;BME280;69094;48.154;11.536;2023-09-12T08:00:31;95332.38;;;28.51;40.16
79612;BME280;69094;48.154;11.536;2023-09-12T08:02:56;95330.31;;;28.13;40.41
79612;BME280;69094;48.154;11.536;2023-09-12T08:05:22;95336.44;;;27.95;40.88
79612;BME280;69094;48.154;11.536;2023-09-12T08:07:47;95331.69;;;28.47;39.52
79612;BME280;69094;48.154;11.536;2023-09-12T08:10:12;95339.38;;;29.41;37.74
79612;BME280;69094;48.154;11.536;2023-09-12T08:12:38;95339.06;;;29.96;36.61
79612;BME280;69094;48.154;11.536;2023-09-12T08:15:04;95331.59;;;29.24;38.09
79612;BME280;69094;48.154;11.536;2023-09-12T08:17:29;95334.81;;;29.70;37.37
79612;BME280;69094;48.154;11.536;2023-09-12T08:19:55;95333.38;;;30.31;35.93
79612;BME280;69094;48.154;11.536;2023-09-12T08:22:20;95332.00;;;30.14;36.97
79612;BME280;69094;48.154;11.536;2023-09-12T08:24:46;95333.22;;;30.35;35.59
79612;BME280;69094;48.154;11.536;2023-09-12T08:27:11;95342.47;;;30.44;36.02
79612;BME280;69094;48.154;11.536;2023-09-12T08:29:37;95342.72;;;30.68;35.52
79612;BME280;69094;48.154;11.536;2023-09-12T08:32:03;95341.66;;;31.52;33.87
79612;BME280;69094;48.154;11.536;2023-09-12T08:34:29;95344.09;;;32.24;32.32
79612;BME280;69094;48.154;11.536;2023-09-12T08:36:54;95336.53;;;32.58;30.95
79612;BME280;69094;48.154;11.536;2023-09-12T08:39:24;95340.31;;;32.79;30.67
79612;BME280;69094;48.154;11.536;2023-09-12T08:41:51;95337.81;;;32.81;30.08
79612;BME280;69094;48.154;11.536;2023-09-12T08:44:16;95339.19;;;31.45;33.09
79612;BME280;69094;48.154;11.536;2023-09-12T08:46:42;95339.09;;;31.08;34.74
79612;BME280;69094;48.154;11.536;2023-09-12T08:49:09;95341.47;;;32.02;32.33
79612;BME280;69094;48.154;11.536;2023-09-12T08:51:37;95333.22;;;31.80;33.05
79612;BME280;69094;48.154;11.536;2023-09-12T08:54:03;95336.66;;;32.54;30.68
79612;BME280;69094;48.154;11.536;2023-09-12T08:56:36;95330.56;;;32.89;30.65
79612;BME280;69094;48.154;11.536;2023-09-12T08:59:04;95334.75;;;33.03;29.96
79612;BME280;69094;48.154;11.536;2023-09-12T09:01:31;95328.88;;;32.49;30.83
79612;BME280;69094;48.154;11.536;2023-09-12T09:03:57;95336.03;;;31.71;32.90
79612;BME280;69094;48.154;11.536;2023-09-12T09:06:23;95333.81;;;32.64;30.94
79612;BME280;69094;48.154;11.536;2023-09-12T09:08:49;95332.28;;;31.46;32.83
79612;BME280;69094;48.154;11.536;2023-09-12T09:11:14;95334.28;;;31.37;32.22
79612;BME280;69094;48.154;11.536;2023-09-12T09:13:40;95330.09;;;31.60;32.31
79612;BME280;69094;48.154;11.536;2023-09-12T09:16:16;95328.34;;;31.90;32.98
79612;BME280;69094;48.154;11.536;2023-09-12T09:18:58;95322.38;;;33.00;30.43
79612;BME280;69094;48.154;11.536;2023-09-12T09:21:29;95320.63;;;34.05;28.57
79612;BME280;69094;48.154;11.536;2023-09-12T09:23:58;95319.22;;;33.32;28.85
79612;BME280;69094;48.154;11.536;2023-09-12T09:26:24;95306.91;;;34.57;27.33
79612;BME280;69094;48.154;11.536;2023-09-12T09:29:06;95321.50;;;35.21;26.75
79612;BME280;69094;48.154;11.536;2023-09-12T09:31:32;95317.03;;;33.89;28.84
79612;BME280;69094;48.154;11.536;2023-09-12T09:33:59;95319.50;;;34.12;27.56
79612;BME280;69094;48.154;11.536;2023-09-12T09:36:25;95312.06;;;33.99;28.91
79612;BME280;69094;48.154;11.536;2023-09-12T09:38:51;95319.28;;;34.95;26.24
79612;BME280;69094;48.154;11.536;2023-09-12T09:41:20;95312.50;;;35.22;26.24
79612;BME280;69094;48.154;11.536;2023-09-12T09:43:45;95310.44;;;34.07;27.21
79612;BME280;69094;48.154;11.536;2023-09-12T09:46:15;95307.75;;;35.13;26.08
79612;BME280;69094;48.154;11.536;2023-09-12T09:48:48;95304.59;;;34.11;27.92
79612;BME280;69094;48.154;11.536;2023-09-12T09:51:14;95303.97;;;33.14;29.32
79612;BME280;69094;48.154;11.536;2023-09-12T09:53:39;95310.81;;;34.30;27.35
79612;BME280;69094;48.154;11.536;2023-09-12T09:56:09;95307.66;;;34.58;26.90
79612;BME280;69094;48.154;11.536;2023-09-12T09:58:36;95303.53;;;34.08;27.18
79612;BME280;69094;48.154;11.536;2023-09-12T10:01:01;95309.69;;;33.44;28.54
79612;BME280;69094;48.154;11.536;2023-09-12T10:03:29;95302.03;;;32.72;29.70
79612;BME280;69094;48.154;11.536;2023-09-12T10:06:00;95294.31;;;33.06;29.27
79612;BME280;69094;48.154;11.536;2023-09-12T10:08:28;95293.63;;;32.63;29.26
79612;BME280;69094;48.154;11.536;2023-09-12T10:10:54;95296.91;;;32.61;29.90
79612;BME280;69094;48.154;11.536;2023-09-12T10:13:20;95301.44;;;32.92;28.93
79612;BME280;69094;48.154;11.536;2023-09-12T10:15:47;95296.19;;;33.72;27.25
79612;BME280;69094;48.154;11.536;2023-09-12T10:18:19;95295.28;;;34.70;26.18
79612;BME280;69094;48.154;11.536;2023-09-12T10:21:10;95294.88;;;34.27;27.09
79612;BME280;69094;48.154;11.536;2023-09-12T10:23:44;95292.78;;;33.98;25.90
79612;BME280;69094;48.154;11.536;2023-09-12T10:26:13;95301.47;;;33.94;26.37
79612;BME280;69094;48.154;11.536;2023-09-12T10:28:43;95286.78;;;34.20;26.29
79612;BME280;69094;48.154;11.536;2023-09-12T10:31:11;95288.41;;;33.43;27.12
79612;BME280;69094;48.154;11.536;2023-09-12T10:33:37;95284.09;;;33.57;25.94
79612;BME280;69094;48.154;11.536;2023-09-12T10:36:05;95292.38;;;33.60;26.47
79612;BME280;69094;48.154;11.536;2023-09-12T10:38:40;95286.66;;;33.84;26.27
79612;BME280;69094;48.154;11.536;2023-09-12T10:41:09;95283.06;;;32.97;28.23
79612;BME280;69094;48.154;11.536;2023-09-12T10:43:37;95274.88;;;32.84;28.29
79612;BME280;69094;48.154;11.536;2023-09-12T10:46:03;95273.72;;;32.67;28.98
79612;BME280;69094;48.154;11.536;2023-09-12T10:48:30;95274.16;;;32.32;28.75
79612;BME280;69094;48.154;11.536;2023-09-12T10:51:01;95281.19;;;33.27;26.99
79612;BME280;69094;48.154;11.536;2023-09-12T10:53:30;95274.16;;;32.98;27.45
79612;BME280;69094;48.154;11.536;2023-09-12T11:01:41;95280.41;;;34.90;24.71
79612;BME280;69094;48.154;11.536;2023-09-12T11:06:47;95281.66;;;35.04;23.68
79612;BME280;69094;48.154;11.536;2023-09-12T11:11:38;95284.06;;;34.10;26.15
79612;BME280;69094;48.154;11.536;2023-09-12T11:14:05;95283.88;;;33.21;27.10
79612;BME280;69094;48.154;11.536;2023-09-12T11:16:32;95272.50;;;33.16;27.15
79612;BME280;69094;48.154;11.536;2023-09-12T11:21:45;95272.13;;;32.75;27.38
79612;BME280;69094;48.154;11.536;2023-09-12T11:24:12;95268.09;;;32.24;29.67
79612;BME280;69094;48.154;11.536;2023-09-12T11:26:57;95272.31;;;32.19;29.48
79612;BME280;69094;48.154;11.536;2023-09-12T11:29:39;95267.19;;;32.60;29.29
79612;BME280;69094;48.154;11.536;2023-09-12T11:32:06;95265.72;;;32.32;29.43
79612;BME280;69094;48.154;11.536;2023-09-12T11:34:42;95263.28;;;32.15;29.37
79612;BME280;69094;48.154;11.536;2023-09-12T11:37:08;95266.06;;;33.39;26.31
79612;BME280;69094;48.154;11.536;2023-09-12T11:39:36;95269.84;;;34.20;26.17
79612;BME280;69094;48.154;11.536;2023-09-12T11:42:03;95265.59;;;35.15;24.00
79612;BME280;69094;48.154;11.536;2023-09-12T11:44:30;95262.91;;;34.06;25.45
79612;BME280;69094;48.154;11.536;2023-09-12T11:47:00;95252.88;;;33.21;26.11
79612;BME280;69094;48.154;11.536;2023-09-12T11:49:38;95257.13;;;32.69;26.93
79612;BME280;69094;48.154;11.536;2023-09-12T11:52:09;95255.53;;;32.34;27.18
79612;BME280;69094;48.154;11.536;2023-09-12T11:54:34;95255.50;;;32.10;28.39
79612;BME280;69094;48.154;11.536;2023-09-12T11:57:02;95257.59;;;32.25;27.97
79612;BME280;69094;48.154;11.536;2023-09-12T11:59:30;95252.97;;;32.79;27.13
79612;BME280;69094;48.154;11.536;2023-09-12T12:01:56;95246.53;;;32.88;26.91
79612;BME280;69094;48.154;11.536;2023-09-12T12:04:22;95250.84;;;33.22;25.98
79612;BME280;69094;48.154;11.536;2023-09-12T12:06:50;95242.84;;;32.96;27.97
79612;BME280;69094;48.154;11.536;2023-09-12T12:09:16;95248.47;;;33.44;26.46
79612;BME280;69094;48.154;11.536;2023-09-12T12:11:44;95249.81;;;32.86;28.56
79612;BME280;69094;48.154;11.536;2023-09-12T12:14:17;95244.81;;;34.27;24.86
79612;BME280;69094;48.154;11.536;2023-09-12T12:16:43;95241.91;;;34.22;25.84
79612;BME280;69094;48.154;11.536;2023-09-12T12:19:15;95235.28;;;33.80;24.98
79612;BME280;69094;48.154;11.536;2023-09-12T12:21:41;95238.06;;;33.12;27.02
79612;BME280;69094;48.154;11.536;2023-09-12T12:24:10;95236.94;;;33.33;26.93
79612;BME280;69094;48.154;11.536;2023-09-12T12:26:36;95234.50;;;33.65;27.15
79612;BME280;69094;48.154;11.536;2023-09-12T12:29:03;95233.50;;;34.27;25.94
79612;BME280;69094;48.154;11.536;2023-09-12T12:31:29;95228.59;;;34.78;23.36
79612;BME280;69094;48.154;11.536;2023-09-12T12:33:56;95226.31;;;34.26;25.17
79612;BME280;69094;48.154;11.536;2023-09-12T12:36:22;95223.09;;;34.34;25.43
79612;BME280;69094;48.154;11.536;2023-09-12T12:38:49;95224.22;;;34.98;24.46
79612;BME280;69094;48.154;11.536;2023-09-12T12:41:16;95225.06;;;34.48;22.83
79612;BME280;69094;48.154;11.536;2023-09-12T12:43:42;95224.16;;;34.92;24.50
79612;BME280;69094;48.154;11.536;2023-09-12T12:46:12;95222.19;;;34.98;22.74
79612;BME280;69094;48.154;11.536;2023-09-12T12:48:38;95228.97;;;35.06;23.78
79612;BME280;69094;48.154;11.536;2023-09-12T12:51:18;95215.72;;;35.12;22.21
79612;BME280;69094;48.154;11.536;2023-09-12T12:53:48;95216.59;;;34.83;22.07
79612;BME280;69094;48.154;11.536;2023-09-12T12:56:18;95210.44;;;34.64;22.74
79612;BME280;69094;48.154;11.536;2023-09-12T12:58:48;95208.81;;;34.78;24.24
79612;BME280;69094;48.154;11.536;2023-09-12T13:01:14;95201.78;;;34.88;23.80
79612;BME280;69094;48.154;11.536;2023-09-12T13:03:40;95198.50;;;34.95;23.94
79612;BME280;69094;48.154;11.536;2023-09-12T13:06:06;95197.81;;;34.60;24.26
79612;BME280;69094;48.154;11.536;2023-09-12T13:08:33;95191.50;;;34.70;24.21